createdAt,value
2018-12-03T00:01:27.200Z,94.80
2018-12-03T00:04:28.166Z,94.80
2018-12-03T00:06:57.156Z,95.00
2018-12-03T00:09:26.125Z,95.00
2018-12-03T00:11:55.121Z,94.90
2018-12-03T00:14:24.067Z,94.80
2018-12-03T00:16:53.428Z,94.80
2018-12-03T00:19:22.746Z,94.80
2018-12-03T00:21:51.852Z,94.80
2018-12-03T00:24:20.820Z,94.70
2018-12-03T00:26:49.787Z,94.80
2018-12-03T00:29:18.948Z,94.90
2018-12-03T00:31:47.923Z,95.00
2018-12-03T00:34:16.890Z,95.00
2018-12-03T00:36:45.882Z,94.90
2018-12-03T00:39:14.876Z,95.00
2018-12-03T00:41:43.868Z,94.90
2018-12-03T00:44:12.860Z,94.80
2018-12-03T00:46:41.806Z,94.80
2018-12-03T00:49:10.887Z,94.80
2018-12-03T00:51:39.986Z,94.70
2018-12-03T00:54:09.012Z,94.70
2018-12-03T00:56:38.274Z,94.70
2018-12-03T00:59:07.210Z,94.60
2018-12-03T01:01:36.675Z,94.60
2018-12-03T01:04:06.241Z,94.60
2018-12-03T01:06:35.370Z,94.60
2018-12-03T01:09:06.705Z,94.70
2018-12-03T01:11:36.216Z,94.60
2018-12-03T01:14:06.381Z,94.60
2018-12-03T01:16:34.483Z,94.60
2018-12-03T01:19:03.397Z,94.50
2018-12-03T01:21:32.302Z,94.50
2018-12-03T01:24:01.262Z,94.80
2018-12-03T01:26:30.364Z,94.30
2018-12-03T01:28:59.325Z,94.40
2018-12-03T01:31:28.367Z,94.60
2018-12-03T01:33:57.317Z,94.70
2018-12-03T01:36:26.289Z,94.70
2018-12-03T01:38:55.330Z,95.00
2018-12-03T01:41:24.717Z,94.80
2018-12-03T01:43:53.649Z,94.90
2018-12-03T01:46:22.636Z,95.00
2018-12-03T01:48:51.583Z,94.90
2018-12-03T01:51:20.643Z,94.70
2018-12-03T01:53:49.626Z,94.80
2018-12-03T01:56:18.582Z,94.90
2018-12-03T01:58:47.497Z,95.00
2018-12-03T02:01:16.455Z,95.30
2018-12-03T02:03:45.375Z,95.40
2018-12-03T02:06:14.449Z,95.40
2018-12-03T02:08:43.348Z,95.50
2018-12-03T02:11:12.395Z,95.30
2018-12-03T02:13:41.286Z,95.40
2018-12-03T02:16:10.244Z,95.10
2018-12-03T02:18:39.193Z,95.10
2018-12-03T02:21:08.167Z,95.30
2018-12-03T02:23:37.279Z,95.20
2018-12-03T02:26:06.258Z,95.30
2018-12-03T02:28:35.177Z,95.30
2018-12-03T02:31:04.473Z,95.40
2018-12-03T02:33:33.574Z,95.50
2018-12-03T02:36:02.496Z,95.50
2018-12-03T02:38:31.453Z,95.50
2018-12-03T02:41:00.403Z,95.60
2018-12-03T02:43:29.325Z,95.60
2018-12-03T02:45:58.229Z,95.70
2018-12-03T02:48:27.256Z,95.70
2018-12-03T02:50:56.170Z,95.70
2018-12-03T02:53:25.125Z,95.70
2018-12-03T02:55:54.034Z,95.60
2018-12-03T02:58:22.978Z,95.50
2018-12-03T03:00:51.898Z,95.30
2018-12-03T03:03:20.845Z,95.30
2018-12-03T03:05:49.836Z,95.20
2018-12-03T03:08:18.757Z,95.10
2018-12-03T03:10:47.865Z,95.10
2018-12-03T03:13:16.803Z,95.00
2018-12-03T03:15:45.760Z,95.00
2018-12-03T03:18:14.832Z,94.90
2018-12-03T03:20:43.939Z,94.90
2018-12-03T03:23:12.886Z,94.80
2018-12-03T03:25:41.911Z,94.70
2018-12-03T03:28:10.813Z,94.70
2018-12-03T03:30:39.721Z,94.70
2018-12-03T03:33:08.869Z,94.70
2018-12-03T03:35:37.852Z,94.70
2018-12-03T03:38:07.593Z,94.70
2018-12-03T03:40:36.528Z,94.70
2018-12-03T03:43:05.928Z,94.70
2018-12-03T03:45:34.847Z,94.70
2018-12-03T03:48:04.115Z,94.80
2018-12-03T03:50:33.057Z,94.80
2018-12-03T03:53:02.070Z,94.80
2018-12-03T03:55:30.995Z,94.80
2018-12-03T03:58:00.025Z,94.70
2018-12-03T04:00:28.982Z,94.80
2018-12-03T04:02:58.989Z,94.90
2018-12-03T04:05:28.207Z,94.90
2018-12-03T04:07:57.456Z,95.00
2018-12-03T04:10:26.358Z,95.00
2018-12-03T04:12:55.302Z,95.00
2018-12-03T04:15:24.201Z,95.20
2018-12-03T04:20:28.415Z,95.10
2018-12-03T04:22:57.393Z,95.10
2018-12-03T04:25:26.317Z,95.10
2018-12-03T04:27:55.309Z,95.20
2018-12-03T04:30:24.215Z,95.20
2018-12-03T04:32:54.170Z,95.20
2018-12-03T04:35:25.049Z,95.20
2018-12-03T04:37:54.094Z,95.20
2018-12-03T04:40:23.140Z,95.20
2018-12-03T04:42:52.092Z,95.30
2018-12-03T04:45:21.471Z,95.30
2018-12-03T04:47:51.109Z,95.30
2018-12-03T04:50:21.076Z,95.30
2018-12-03T04:52:50.010Z,95.30
2018-12-03T04:55:19.852Z,95.30
2018-12-03T04:57:49.184Z,95.40
2018-12-03T05:00:19.994Z,95.40
2018-12-03T05:02:50.446Z,95.40
2018-12-03T05:05:19.526Z,95.50
2018-12-03T05:07:49.816Z,95.50
2018-12-03T05:10:20.214Z,95.50
2018-12-03T05:12:50.776Z,95.50
2018-12-03T05:15:19.857Z,95.60
2018-12-03T05:17:48.791Z,95.60
2018-12-03T05:20:21.241Z,95.60
2018-12-03T05:22:50.213Z,95.60
2018-12-03T05:25:19.770Z,95.60
2018-12-03T05:27:48.167Z,95.70
2018-12-03T05:30:17.717Z,95.70
2018-12-03T05:32:47.216Z,95.70
2018-12-03T05:35:18.682Z,95.60
2018-12-03T05:37:47.827Z,95.60
2018-12-03T05:40:19.137Z,95.60
2018-12-03T05:42:48.172Z,95.60
2018-12-03T05:45:17.197Z,95.70
2018-12-03T05:47:46.190Z,95.90
2018-12-03T05:50:15.953Z,95.90
2018-12-03T05:52:46.197Z,95.90
2018-12-03T05:55:15.292Z,95.90
2018-12-03T05:57:45.056Z,96.00
2018-12-03T06:00:19.730Z,95.90
2018-12-03T06:02:48.760Z,95.90
2018-12-03T06:05:17.843Z,95.90
2018-12-03T06:07:46.759Z,95.90
2018-12-03T06:10:18.423Z,96.00
2018-12-03T06:12:47.612Z,96.00
2018-12-03T06:15:17.788Z,96.00
2018-12-03T06:17:47.771Z,96.10
2018-12-03T06:20:17.758Z,96.10
2018-12-03T06:22:47.575Z,96.10
2018-12-03T06:25:18.352Z,96.40
2018-12-03T06:27:47.348Z,96.00
2018-12-03T06:30:18.050Z,96.00
2018-12-03T06:32:47.232Z,96.00
2018-12-03T06:35:16.766Z,96.00
2018-12-03T06:37:45.843Z,96.00
2018-12-03T06:40:17.896Z,96.00
2018-12-03T06:42:47.196Z,96.10
2018-12-03T06:45:18.352Z,96.10
2018-12-03T06:47:55.882Z,96.10
2018-12-03T06:50:24.881Z,96.10
2018-12-03T06:52:53.811Z,96.10
2018-12-03T06:55:22.751Z,96.00
2018-12-03T06:57:51.680Z,95.90
2018-12-03T07:00:22.051Z,95.90
2018-12-03T07:02:51.004Z,96.00
2018-12-03T07:05:19.977Z,96.00
2018-12-03T07:07:50.653Z,95.90
2018-12-03T07:10:20.579Z,95.80
2018-12-03T07:12:55.027Z,95.90
2018-12-03T07:15:23.987Z,96.00
2018-12-03T07:17:55.896Z,95.90
2018-12-03T07:20:25.082Z,95.90
2018-12-03T07:22:54.021Z,95.80
2018-12-03T07:25:23.098Z,95.70
2018-12-03T07:27:52.439Z,95.50
2018-12-03T07:30:23.860Z,95.50
2018-12-03T07:32:53.590Z,95.50
2018-12-03T07:35:23.996Z,95.50
2018-12-03T07:37:55.218Z,95.50
2018-12-03T07:40:31.050Z,95.60
2018-12-03T07:42:59.966Z,95.60
2018-12-03T07:45:29.252Z,95.60
2018-12-03T07:47:58.402Z,96.00
2018-12-03T07:50:27.574Z,95.60
2018-12-03T07:52:56.586Z,95.60
2018-12-03T07:55:26.732Z,96.00
2018-12-03T07:58:03.669Z,95.60
2018-12-03T08:00:36.924Z,95.50
2018-12-03T08:03:06.598Z,95.40
2018-12-03T08:05:35.532Z,95.50
2018-12-03T08:08:04.968Z,95.30
2018-12-03T08:10:33.901Z,95.20
2018-12-03T08:13:02.860Z,95.00
2018-12-03T08:15:31.823Z,94.80
2018-12-03T08:18:03.285Z,94.60
2018-12-03T08:20:43.407Z,94.40
2018-12-03T08:23:17.805Z,94.40
2018-12-03T08:25:46.743Z,94.30
2018-12-03T08:28:15.727Z,94.30
2018-12-03T08:30:44.828Z,94.20
2018-12-03T08:33:13.937Z,94.10
2018-12-03T08:35:43.135Z,94.00
2018-12-03T08:38:12.087Z,94.00
2018-12-03T08:40:41.051Z,93.80
2018-12-03T08:43:10.297Z,94.10
2018-12-03T08:45:39.296Z,93.70
2018-12-03T08:48:08.247Z,93.60
2018-12-03T08:50:41.147Z,93.80
2018-12-03T08:53:10.805Z,93.40
2018-12-03T08:55:39.871Z,93.20
2018-12-03T08:58:12.548Z,93.10
2018-12-03T09:00:42.158Z,93.10
2018-12-03T09:03:20.193Z,93.10
2018-12-03T09:05:49.565Z,93.10
2018-12-03T09:08:18.766Z,93.10
2018-12-03T09:10:48.160Z,92.90
2018-12-03T09:13:18.653Z,92.70
2018-12-03T09:15:59.452Z,92.50
2018-12-03T09:18:32.110Z,92.50
2018-12-03T09:21:01.337Z,92.50
2018-12-03T09:23:30.303Z,92.50
2018-12-03T09:25:59.365Z,92.50
2018-12-03T09:28:28.436Z,92.40
2018-12-03T09:30:57.960Z,92.50
2018-12-03T09:33:26.412Z,92.50
2018-12-03T09:35:55.530Z,92.50
2018-12-03T09:38:24.548Z,92.40
2018-12-03T09:41:01.560Z,92.30
2018-12-03T09:43:30.954Z,92.20
2018-12-03T09:45:59.959Z,92.20
2018-12-03T09:48:28.920Z,92.10
2018-12-03T09:50:57.873Z,91.60
2018-12-03T09:53:26.886Z,91.40
2018-12-03T09:55:55.802Z,90.90
2018-12-03T09:58:24.767Z,90.80
2018-12-03T10:00:53.808Z,90.80
2018-12-03T10:03:24.765Z,90.70
2018-12-03T10:05:56.716Z,90.40
2018-12-03T10:08:31.483Z,90.40
2018-12-03T10:11:02.105Z,90.40
2018-12-03T10:13:32.143Z,90.50
2018-12-03T10:16:01.123Z,90.60
2018-12-03T10:18:30.321Z,90.30
2018-12-03T10:21:01.369Z,90.00
2018-12-03T10:23:30.422Z,89.50
2018-12-03T10:26:00.493Z,89.50
2018-12-03T10:28:29.719Z,89.10
2018-12-03T10:30:59.473Z,88.90
2018-12-03T10:33:32.269Z,88.70
2018-12-03T10:36:05.785Z,88.90
2018-12-03T10:38:36.675Z,88.90
2018-12-03T10:41:11.908Z,88.60
2018-12-03T10:43:40.956Z,87.70
2018-12-03T10:46:10.962Z,87.70
2018-12-03T10:48:40.008Z,87.50
2018-12-03T10:51:12.936Z,88.00
2018-12-03T10:53:41.990Z,88.00
2018-12-03T10:56:11.002Z,88.00
2018-12-03T10:58:42.673Z,87.80
2018-12-03T11:01:17.115Z,86.40
2018-12-03T11:03:51.471Z,85.80
2018-12-03T11:06:21.616Z,84.90
2018-12-03T11:08:50.592Z,84.80
2018-12-03T11:11:20.263Z,84.30
2018-12-03T11:13:49.223Z,83.60
2018-12-03T11:16:27.895Z,82.90
2018-12-03T11:18:57.166Z,83.60
2018-12-03T11:21:27.249Z,84.00
2018-12-03T11:23:56.665Z,83.50
2018-12-03T11:26:32.774Z,83.80
2018-12-03T11:29:02.797Z,84.00
2018-12-03T11:31:33.627Z,83.60
2018-12-03T11:34:02.624Z,83.30
2018-12-03T11:36:39.333Z,83.80
2018-12-03T11:39:13.676Z,84.10
2018-12-03T11:41:42.939Z,84.30
2018-12-03T11:44:12.238Z,83.50
2018-12-03T11:46:41.408Z,82.90
2018-12-03T11:49:10.558Z,83.20
2018-12-03T11:51:39.550Z,83.10
2018-12-03T11:54:08.626Z,82.80
2018-12-03T11:56:37.586Z,83.00
2018-12-03T11:59:06.948Z,82.80
2018-12-03T12:01:35.900Z,83.10
2018-12-03T12:04:05.350Z,83.50
2018-12-03T12:06:34.366Z,83.70
2018-12-03T12:09:03.907Z,83.50
2018-12-03T12:11:32.926Z,83.20
2018-12-03T12:14:01.891Z,85.00
2018-12-03T12:16:30.881Z,87.70
2018-12-03T12:18:59.910Z,89.20
2018-12-03T12:21:28.870Z,90.40
2018-12-03T12:23:57.839Z,90.80
2018-12-03T12:26:26.859Z,91.10
2018-12-03T12:28:55.908Z,91.40
2018-12-03T12:31:24.870Z,91.90
2018-12-03T12:33:53.865Z,92.30
2018-12-03T12:36:22.940Z,92.50
2018-12-03T12:38:51.897Z,92.70
2018-12-03T12:41:20.904Z,92.90
2018-12-03T12:43:49.812Z,92.70
2018-12-03T12:46:27.840Z,92.50
2018-12-03T12:48:56.768Z,92.40
2018-12-03T12:51:25.921Z,92.40
2018-12-03T12:53:54.903Z,92.40
2018-12-03T12:56:23.868Z,92.40
2018-12-03T12:58:52.870Z,92.40
2018-12-03T13:01:21.806Z,92.50
2018-12-03T13:03:50.754Z,92.60
2018-12-03T13:06:19.740Z,92.70
2018-12-03T13:08:48.650Z,92.90
2018-12-03T13:11:17.568Z,92.90
2018-12-03T13:13:46.520Z,92.80
2018-12-03T13:16:15.806Z,92.80
2018-12-03T13:18:44.832Z,92.70
2018-12-03T13:21:13.785Z,92.60
2018-12-03T13:23:42.854Z,92.60
2018-12-03T13:26:11.860Z,92.60
2018-12-03T13:28:40.911Z,92.60
2018-12-03T13:31:09.991Z,92.70
2018-12-03T13:33:38.980Z,92.70
2018-12-03T13:36:09.672Z,92.70
2018-12-03T13:38:38.626Z,92.70
2018-12-03T13:41:07.931Z,92.60
2018-12-03T13:43:36.898Z,92.50
2018-12-03T13:46:07.354Z,92.20
2018-12-03T13:48:35.706Z,91.90
2018-12-03T13:51:04.760Z,91.60
2018-12-03T13:53:33.770Z,91.40
2018-12-03T13:56:02.698Z,91.20
2018-12-03T13:58:32.126Z,90.80
2018-12-03T14:01:01.148Z,90.70
2018-12-03T14:03:33.584Z,90.60
2018-12-03T14:06:11.027Z,90.20
2018-12-03T14:11:53.542Z,90.20
2018-12-03T14:14:50.558Z,90.10
2018-12-03T14:17:29.753Z,90.20
2018-12-03T14:20:33.236Z,90.30
2018-12-03T14:23:02.332Z,90.20
2018-12-03T14:25:31.272Z,90.20
2018-12-03T14:28:00.426Z,90.10
2018-12-03T14:30:29.454Z,90.10
2018-12-03T14:32:58.538Z,90.10
2018-12-03T14:35:27.490Z,90.00
2018-12-03T14:37:56.532Z,90.00
2018-12-03T14:40:25.567Z,90.00
2018-12-03T14:42:54.578Z,90.00
2018-12-03T14:45:23.554Z,90.00
2018-12-03T14:47:52.526Z,90.00
2018-12-03T14:50:21.503Z,90.00
2018-12-03T14:52:50.482Z,90.00
2018-12-03T14:55:19.471Z,90.10
2018-12-03T14:57:48.528Z,90.20
2018-12-03T15:00:17.726Z,90.20
2018-12-03T15:02:46.771Z,90.20
2018-12-03T15:05:15.963Z,90.40
2018-12-03T15:07:45.279Z,90.50
2018-12-03T15:10:14.360Z,90.70
2018-12-03T15:12:43.387Z,90.80
2018-12-03T15:15:12.471Z,91.10
2018-12-03T15:17:41.471Z,91.00
2018-12-03T15:20:10.521Z,91.10
2018-12-03T15:22:39.516Z,91.20
2018-12-03T15:25:08.518Z,91.30
2018-12-03T15:27:37.501Z,91.30
2018-12-03T15:30:06.817Z,91.30
2018-12-03T15:32:35.796Z,91.30
2018-12-03T15:35:05.507Z,91.40
2018-12-03T15:37:34.499Z,91.50
2018-12-03T15:40:04.116Z,91.50
2018-12-03T15:42:33.173Z,91.70
2018-12-03T15:45:02.277Z,91.80
2018-12-03T15:47:31.250Z,91.90
2018-12-03T15:50:00.230Z,92.00
2018-12-03T15:52:29.279Z,92.10
2018-12-03T15:54:58.290Z,92.20
2018-12-03T15:57:27.394Z,92.30
2018-12-03T15:59:56.367Z,92.50
2018-12-03T16:02:25.354Z,92.60
2018-12-03T16:04:54.323Z,92.70
2018-12-03T16:07:23.344Z,92.70
2018-12-03T16:09:52.320Z,92.80
2018-12-03T16:12:21.272Z,92.80
2018-12-03T16:14:50.257Z,92.90
2018-12-03T16:17:20.241Z,93.00
2018-12-03T16:19:49.569Z,93.00
2018-12-03T16:22:18.624Z,93.10
2018-12-03T16:24:47.579Z,93.20
2018-12-03T16:27:16.552Z,93.20
2018-12-03T16:29:45.603Z,93.20
2018-12-03T16:32:14.573Z,93.20
2018-12-03T16:34:43.542Z,93.30
2018-12-03T16:37:12.576Z,93.30
2018-12-03T16:39:41.597Z,93.40
2018-12-03T16:42:10.819Z,93.50
2018-12-03T16:44:39.773Z,93.50
2018-12-03T16:47:08.846Z,93.50
2018-12-03T16:49:37.803Z,93.60
2018-12-03T16:52:06.795Z,93.60
2018-12-03T16:54:35.843Z,93.60
2018-12-03T16:57:04.925Z,93.60
2018-12-03T16:59:33.901Z,93.70
2018-12-03T17:02:02.945Z,93.70
2018-12-03T17:04:31.914Z,93.80
2018-12-03T17:07:00.895Z,93.80
2018-12-03T17:09:29.886Z,94.00
2018-12-03T17:11:59.144Z,94.00
2018-12-03T17:14:28.137Z,93.90
2018-12-03T17:16:57.108Z,93.70
2018-12-03T17:19:26.071Z,93.60
2018-12-03T17:21:55.586Z,93.50
2018-12-03T17:24:24.607Z,93.30
2018-12-03T17:26:53.643Z,93.20
2018-12-03T17:29:22.593Z,93.10
2018-12-03T17:31:52.215Z,93.00
2018-12-03T17:34:21.212Z,92.90
2018-12-03T17:36:50.180Z,92.80
2018-12-03T17:39:19.149Z,92.70
2018-12-03T17:41:48.112Z,92.40
2018-12-03T17:44:17.080Z,92.60
2018-12-03T17:46:46.068Z,92.60
2018-12-03T17:49:15.180Z,92.70
2018-12-03T17:51:44.151Z,92.70
2018-12-03T17:54:13.175Z,92.60
2018-12-03T17:56:42.200Z,92.60
2018-12-03T17:59:11.270Z,92.50
2018-12-03T18:01:40.265Z,92.50
2018-12-03T18:04:11.009Z,92.60
2018-12-03T18:06:40.247Z,92.50
2018-12-03T18:09:09.220Z,92.40
2018-12-03T18:11:38.183Z,92.40
2018-12-03T18:14:07.150Z,92.30
2018-12-03T18:16:36.202Z,92.30
2018-12-03T18:19:05.269Z,92.30
2018-12-03T18:21:34.355Z,92.40
2018-12-03T18:24:03.440Z,92.40
2018-12-03T18:26:32.461Z,92.40
2018-12-03T18:29:01.429Z,92.30
2018-12-03T18:31:30.454Z,92.30
2018-12-03T18:33:59.426Z,92.20
2018-12-03T18:36:28.414Z,92.30
2018-12-03T18:38:57.406Z,92.30
2018-12-03T18:41:26.508Z,92.30
2018-12-03T18:43:55.666Z,92.40
2018-12-03T18:46:24.712Z,92.50
2018-12-03T18:48:54.205Z,92.50
2018-12-03T18:51:23.227Z,92.60
2018-12-03T18:53:52.189Z,92.70
2018-12-03T18:56:21.577Z,92.80
2018-12-03T18:58:50.706Z,92.90
2018-12-03T19:01:19.923Z,93.00
2018-12-03T19:03:48.889Z,93.00
2018-12-03T19:06:17.899Z,92.90
2018-12-03T19:08:46.981Z,92.90
2018-12-03T19:11:15.960Z,92.90
2018-12-03T19:13:44.989Z,93.00
2018-12-03T19:16:13.956Z,93.00
2018-12-03T19:18:42.947Z,93.00
2018-12-03T19:21:11.913Z,93.00
2018-12-03T19:23:40.896Z,93.00
2018-12-03T19:26:09.852Z,93.00
2018-12-03T19:28:38.885Z,93.00
2018-12-03T19:31:07.849Z,93.00
2018-12-03T19:33:38.660Z,93.00
2018-12-03T19:36:07.637Z,93.00
2018-12-03T19:38:36.589Z,93.00
2018-12-03T19:41:05.629Z,93.00
2018-12-03T19:43:34.639Z,93.00
2018-12-03T19:46:03.611Z,93.00
2018-12-03T19:48:32.575Z,92.90
2018-12-03T19:51:01.596Z,92.90
2018-12-03T19:53:30.567Z,92.90
2018-12-03T19:55:59.661Z,93.00
2018-12-03T19:58:28.660Z,93.10
2018-12-03T20:00:57.601Z,93.10
2018-12-03T20:03:26.668Z,93.10
2018-12-03T20:05:55.621Z,92.90
2018-12-03T20:08:24.649Z,93.10
2018-12-03T20:10:53.649Z,93.00
2018-12-03T20:13:22.739Z,93.00
2018-12-03T20:15:51.809Z,93.00
2018-12-03T20:18:20.775Z,93.00
2018-12-03T20:20:49.784Z,92.90
2018-12-03T20:23:18.811Z,93.00
2018-12-03T20:25:48.013Z,93.00
2018-12-03T20:28:17.127Z,93.10
2018-12-03T20:30:46.413Z,93.10
2018-12-03T20:33:15.414Z,93.10
2018-12-03T20:35:44.639Z,93.20
2018-12-03T20:38:13.673Z,93.20
2018-12-03T20:40:43.171Z,93.20
2018-12-03T20:43:12.494Z,93.20
2018-12-03T20:45:45.580Z,93.10
2018-12-03T20:48:14.546Z,93.10
2018-12-03T20:50:43.716Z,93.10
2018-12-03T20:53:13.108Z,93.10
2018-12-03T20:55:42.190Z,93.00
2018-12-03T20:58:11.172Z,93.00
2018-12-03T21:00:40.137Z,93.00
2018-12-03T21:03:09.088Z,92.80
2018-12-03T21:05:38.090Z,92.80
2018-12-03T21:08:07.140Z,93.10
2018-12-03T21:10:36.234Z,92.70
2018-12-03T21:13:05.229Z,92.70
2018-12-03T21:15:34.216Z,92.60
2018-12-03T21:18:03.213Z,92.60
2018-12-03T21:20:32.278Z,92.60
2018-12-03T21:23:01.252Z,92.60
2018-12-03T21:25:30.230Z,92.50
2018-12-03T21:27:59.678Z,92.40
2018-12-03T21:30:28.632Z,92.40
2018-12-03T21:32:57.681Z,92.50
2018-12-03T21:35:26.789Z,92.70
2018-12-03T21:37:55.785Z,92.80
2018-12-03T21:40:24.782Z,92.80
2018-12-03T21:42:55.024Z,92.70
2018-12-03T21:45:24.378Z,92.80
2018-12-03T21:47:53.333Z,92.80
2018-12-03T21:50:22.387Z,92.80
2018-12-03T21:52:51.425Z,92.90
2018-12-03T21:55:20.386Z,92.80
2018-12-03T21:57:50.147Z,92.80
2018-12-03T22:00:19.719Z,92.80
2018-12-03T22:02:48.783Z,92.70
2018-12-03T22:05:17.758Z,92.60
2018-12-03T22:07:46.864Z,92.60
2018-12-03T22:10:16.407Z,92.50
2018-12-03T22:12:45.399Z,92.60
2018-12-03T22:15:14.458Z,92.50
2018-12-03T22:17:43.408Z,92.80
2018-12-03T22:20:12.460Z,92.40
2018-12-03T22:22:41.455Z,92.40
2018-12-03T22:25:10.538Z,92.30
2018-12-03T22:27:39.522Z,92.30
2018-12-03T22:30:08.604Z,92.20
2018-12-03T22:32:37.716Z,92.30
2018-12-03T22:35:06.739Z,92.40
2018-12-03T22:37:35.809Z,92.50
2018-12-03T22:40:05.495Z,92.60
2018-12-03T22:42:34.608Z,92.60
2018-12-03T22:45:03.737Z,92.70
2018-12-03T22:47:32.704Z,92.70
2018-12-03T22:50:01.682Z,92.80
2018-12-03T22:52:30.682Z,92.80
2018-12-03T22:54:59.658Z,92.80
2018-12-03T22:57:28.618Z,92.80
2018-12-03T22:59:57.654Z,92.90
2018-12-03T23:02:26.770Z,93.00
2018-12-03T23:04:55.730Z,93.10
2018-12-03T23:07:24.706Z,93.20
2018-12-03T23:09:53.736Z,93.20
2018-12-03T23:12:22.720Z,93.30
2018-12-03T23:14:51.680Z,93.30
2018-12-03T23:17:20.708Z,93.20
2018-12-03T23:19:49.714Z,93.20
2018-12-03T23:22:18.694Z,93.20
2018-12-03T23:24:47.696Z,93.10
2018-12-03T23:27:16.682Z,93.00
2018-12-03T23:29:45.687Z,92.90
2018-12-03T23:32:14.914Z,92.90
2018-12-03T23:34:43.984Z,92.80
2018-12-03T23:37:12.975Z,92.80
2018-12-03T23:39:41.955Z,92.70
2018-12-03T23:42:10.944Z,92.60
2018-12-03T23:44:39.882Z,92.60
2018-12-03T23:47:08.940Z,92.60
2018-12-03T23:49:38.010Z,92.60
2018-12-03T23:52:06.990Z,92.70
2018-12-03T23:54:36.007Z,92.80
2018-12-03T23:57:04.980Z,92.90
2018-12-03T23:59:34.096Z,93.00
